createdAt,value
2018-07-19T00:00:05.817Z,23.06
2018-07-19T00:00:37.017Z,23.01
2018-07-19T00:01:08.208Z,22.81
2018-07-19T00:01:39.406Z,22.97
2018-07-19T00:02:10.579Z,22.95
2018-07-19T00:02:41.748Z,22.91
2018-07-19T00:03:12.904Z,22.90
2018-07-19T00:03:44.034Z,22.88
2018-07-19T00:04:15.219Z,22.84
2018-07-19T00:04:46.332Z,22.84
2018-07-19T00:05:17.508Z,22.83
2018-07-19T00:05:48.717Z,22.80
2018-07-19T00:06:20.007Z,22.77
2018-07-19T00:06:51.172Z,22.77
2018-07-19T00:07:22.311Z,22.75
2018-07-19T00:07:53.535Z,22.73
2018-07-19T00:08:24.717Z,22.72
2018-07-19T00:08:55.867Z,22.72
2018-07-19T00:09:27.019Z,22.70
2018-07-19T00:09:58.136Z,22.71
2018-07-19T00:10:29.251Z,22.70
2018-07-19T00:11:00.564Z,22.72
2018-07-19T00:11:31.766Z,22.73
2018-07-19T00:12:03.010Z,22.77
2018-07-19T00:12:34.253Z,22.80
2018-07-19T00:13:05.477Z,22.83
2018-07-19T00:13:36.648Z,22.86
2018-07-19T00:14:07.790Z,22.89
2018-07-19T00:14:38.943Z,22.91
2018-07-19T00:15:10.115Z,22.88
2018-07-19T00:15:41.259Z,22.86
2018-07-19T00:16:12.476Z,22.84
2018-07-19T00:16:43.724Z,22.83
2018-07-19T00:17:14.989Z,22.84
2018-07-19T00:17:46.226Z,22.86
2018-07-19T00:18:17.407Z,22.87
2018-07-19T00:18:48.536Z,22.91
2018-07-19T00:19:19.738Z,22.90
2018-07-19T00:19:50.940Z,22.90
2018-07-19T00:20:22.075Z,22.88
2018-07-19T00:20:53.787Z,22.86
2018-07-19T00:21:24.973Z,22.84
2018-07-19T00:21:56.147Z,22.81
2018-07-19T00:22:27.851Z,22.78
2018-07-19T00:22:58.980Z,22.77
2018-07-19T00:23:30.192Z,22.75
2018-07-19T00:24:01.470Z,22.75
2018-07-19T00:24:32.663Z,22.76
2018-07-19T00:25:03.786Z,22.71
2018-07-19T00:25:34.982Z,22.70
2018-07-19T00:26:06.119Z,22.68
2018-07-19T00:26:37.302Z,22.65
2018-07-19T00:27:08.436Z,22.65
2018-07-19T00:27:39.620Z,22.61
2018-07-19T00:28:10.795Z,22.59
2018-07-19T00:28:41.956Z,22.57
2018-07-19T00:29:13.075Z,22.56
2018-07-19T00:29:44.278Z,22.57
2018-07-19T00:30:15.473Z,22.56
2018-07-19T00:30:46.647Z,22.58
2018-07-19T00:31:17.779Z,22.59
2018-07-19T00:31:48.986Z,22.62
2018-07-19T00:32:20.167Z,22.63
2018-07-19T00:32:51.295Z,22.63
2018-07-19T00:33:53.553Z,22.64
2018-07-19T00:34:24.780Z,22.67
2018-07-19T00:34:55.952Z,22.68
2018-07-19T00:35:27.136Z,22.70
2018-07-19T00:35:58.336Z,22.68
2018-07-19T00:36:29.549Z,22.66
2018-07-19T00:37:00.755Z,22.64
2018-07-19T00:37:31.892Z,22.64
2018-07-19T00:38:03.068Z,22.64
2018-07-19T00:38:34.283Z,22.63
2018-07-19T00:39:05.512Z,22.61
2018-07-19T00:39:36.709Z,22.58
2018-07-19T00:40:07.908Z,22.57
2018-07-19T00:40:39.110Z,22.57
2018-07-19T00:41:10.299Z,22.54
2018-07-19T00:41:41.542Z,22.53
2018-07-19T00:42:12.717Z,22.51
2018-07-19T00:42:43.909Z,22.49
2018-07-19T00:43:15.103Z,22.48
2018-07-19T00:43:46.310Z,22.47
2018-07-19T00:44:17.528Z,22.45
2018-07-19T00:44:48.721Z,22.48
2018-07-19T00:45:19.850Z,22.51
2018-07-19T00:45:51.621Z,22.54
2018-07-19T00:46:22.811Z,22.55
2018-07-19T00:46:53.992Z,22.56
2018-07-19T00:47:25.151Z,22.56
2018-07-19T00:47:56.312Z,22.58
2018-07-19T00:48:27.435Z,22.60
2018-07-19T00:48:58.559Z,22.60
2018-07-19T00:49:29.801Z,22.62
2018-07-19T00:50:01.064Z,22.64
2018-07-19T00:50:32.264Z,22.68
2018-07-19T00:51:03.395Z,22.71
2018-07-19T00:51:34.590Z,22.75
2018-07-19T00:52:05.712Z,22.79
2018-07-19T00:52:36.953Z,22.81
2018-07-19T00:53:08.135Z,22.80
2018-07-19T00:53:39.258Z,22.78
2018-07-19T00:54:10.387Z,22.77
2018-07-19T00:54:41.501Z,22.73
2018-07-19T00:55:12.737Z,22.72
2018-07-19T00:55:43.917Z,22.70
2018-07-19T00:56:15.108Z,22.73
2018-07-19T00:56:46.332Z,22.75
2018-07-19T00:57:17.460Z,22.77
2018-07-19T00:57:48.604Z,22.80
2018-07-19T00:58:19.735Z,22.77
2018-07-19T00:58:50.877Z,22.74
2018-07-19T00:59:22.021Z,22.70
2018-07-19T00:59:53.151Z,22.67
2018-07-19T01:00:24.315Z,22.66
2018-07-19T01:00:55.451Z,22.64
2018-07-19T01:01:26.580Z,22.65
2018-07-19T01:01:57.701Z,22.67
2018-07-19T01:02:28.872Z,22.66
2018-07-19T01:03:00.004Z,22.68
2018-07-19T01:03:31.249Z,22.71
2018-07-19T01:04:02.440Z,22.71
2018-07-19T01:04:33.632Z,22.74
2018-07-19T01:05:04.848Z,22.78
2018-07-19T01:05:37.041Z,22.80
2018-07-19T01:06:08.176Z,22.80
2018-07-19T01:06:39.291Z,22.81
2018-07-19T01:07:10.533Z,22.80
2018-07-19T01:07:41.693Z,20.78
2018-07-19T01:08:12.826Z,22.79
2018-07-19T01:08:43.952Z,22.79
2018-07-19T01:09:15.140Z,22.75
2018-07-19T01:09:46.301Z,22.81
2018-07-19T01:10:17.432Z,22.82
2018-07-19T01:10:48.663Z,22.82
2018-07-19T01:11:19.848Z,22.83
2018-07-19T01:11:51.044Z,22.82
2018-07-19T01:12:22.212Z,22.77
2018-07-19T01:12:53.372Z,22.72
2018-07-19T01:13:24.508Z,22.68
2018-07-19T01:13:55.687Z,22.67
2018-07-19T01:14:26.879Z,22.65
2018-07-19T01:14:58.043Z,22.64
2018-07-19T01:15:29.268Z,22.61
2018-07-19T01:16:00.486Z,22.59
2018-07-19T01:16:31.738Z,22.61
2018-07-19T01:17:02.882Z,22.59
2018-07-19T01:17:34.075Z,22.58
2018-07-19T01:18:05.209Z,22.57
2018-07-19T01:18:36.352Z,22.58
2018-07-19T01:19:07.531Z,22.57
2018-07-19T01:19:38.666Z,22.58
2018-07-19T01:20:09.837Z,22.58
2018-07-19T01:20:41.056Z,22.57
2018-07-19T01:21:12.185Z,22.56
2018-07-19T01:21:43.316Z,22.56
2018-07-19T01:22:14.556Z,22.58
2018-07-19T01:22:45.707Z,22.60
2018-07-19T01:23:16.911Z,22.62
2018-07-19T01:23:48.049Z,22.62
2018-07-19T01:24:19.236Z,22.66
2018-07-19T01:24:50.382Z,22.68
2018-07-19T01:25:21.507Z,22.71
2018-07-19T01:25:52.835Z,22.73
2018-07-19T01:26:24.012Z,22.76
2018-07-19T01:26:55.988Z,22.76
2018-07-19T01:27:28.201Z,22.76
2018-07-19T01:27:59.413Z,22.74
2018-07-19T01:28:30.595Z,22.77
2018-07-19T01:29:01.715Z,22.79
2018-07-19T01:29:32.917Z,22.82
2018-07-19T01:30:04.097Z,22.82
2018-07-19T01:30:35.316Z,22.82
2018-07-19T01:31:06.451Z,22.80
2018-07-19T01:31:37.625Z,22.81
2018-07-19T01:32:09.212Z,22.79
2018-07-19T01:32:40.407Z,22.81
2018-07-19T01:33:11.636Z,22.80
2018-07-19T01:33:42.826Z,22.82
2018-07-19T01:34:14.052Z,22.82
2018-07-19T01:34:45.176Z,22.83
2018-07-19T01:35:16.413Z,22.84
2018-07-19T01:35:48.264Z,22.82
2018-07-19T01:36:19.459Z,22.85
2018-07-19T01:36:50.692Z,22.85
2018-07-19T01:37:21.823Z,22.81
2018-07-19T01:37:52.995Z,22.81
2018-07-19T01:38:24.189Z,22.81
2018-07-19T01:38:55.393Z,22.80
2018-07-19T01:39:26.518Z,22.81
2018-07-19T01:39:57.711Z,22.83
2018-07-19T01:40:28.838Z,22.89
2018-07-19T01:40:59.967Z,22.89
2018-07-19T01:41:31.180Z,22.90
2018-07-19T01:42:02.303Z,22.91
2018-07-19T01:42:33.553Z,22.88
2018-07-19T01:43:04.720Z,22.90
2018-07-19T01:43:35.920Z,22.90
2018-07-19T01:44:07.131Z,22.94
2018-07-19T01:44:38.382Z,22.96
2018-07-19T01:45:09.572Z,22.98
2018-07-19T01:45:40.722Z,23.02
2018-07-19T01:46:11.850Z,23.01
2018-07-19T01:46:42.964Z,23.04
2018-07-19T01:47:14.151Z,23.06
2018-07-19T01:47:45.330Z,23.04
2018-07-19T01:48:16.564Z,23.08
2018-07-19T01:48:47.725Z,23.09
2018-07-19T01:49:18.858Z,23.10
2018-07-19T01:49:50.105Z,23.12
2018-07-19T01:50:21.242Z,23.14
2018-07-19T01:50:52.371Z,23.14
2018-07-19T01:51:23.621Z,23.14
2018-07-19T01:51:54.763Z,23.12
2018-07-19T01:52:25.948Z,23.08
2018-07-19T01:52:57.091Z,23.05
2018-07-19T01:53:28.311Z,23.01
2018-07-19T01:53:59.511Z,23.00
2018-07-19T01:54:30.764Z,22.99
2018-07-19T01:55:01.975Z,22.96
2018-07-19T01:55:33.091Z,22.97
2018-07-19T01:56:04.276Z,22.95
2018-07-19T01:56:35.418Z,22.93
2018-07-19T01:57:06.548Z,22.88
2018-07-19T01:57:37.689Z,22.84
2018-07-19T01:58:08.815Z,22.81
2018-07-19T01:58:39.988Z,22.80
2018-07-19T01:59:11.128Z,22.79
2018-07-19T01:59:42.260Z,22.75
2018-07-19T02:00:13.477Z,22.74
2018-07-19T02:00:44.580Z,22.71
2018-07-19T02:01:15.699Z,22.70
2018-07-19T02:01:46.905Z,22.70
2018-07-19T02:02:18.032Z,22.71
2018-07-19T02:02:49.156Z,22.71
2018-07-19T02:03:20.292Z,22.72
2018-07-19T02:03:51.497Z,22.73
2018-07-19T02:04:22.632Z,22.71
2018-07-19T02:04:53.850Z,22.69
2018-07-19T02:05:25.101Z,22.65
2018-07-19T02:05:56.302Z,22.64
2018-07-19T02:06:27.475Z,22.64
2018-07-19T02:06:58.684Z,22.63
2018-07-19T02:07:29.838Z,22.63
2018-07-19T02:08:01.021Z,22.63
2018-07-19T02:08:32.155Z,22.67
2018-07-19T02:09:03.308Z,22.68
2018-07-19T02:09:34.488Z,22.70
2018-07-19T02:10:05.708Z,22.72
2018-07-19T02:10:36.976Z,22.70
2018-07-19T02:11:08.172Z,22.69
2018-07-19T02:11:39.387Z,22.69
2018-07-19T02:12:10.604Z,22.69
2018-07-19T02:12:41.811Z,22.67
2018-07-19T02:13:12.940Z,22.66
2018-07-19T02:13:44.121Z,22.64
2018-07-19T02:14:15.247Z,22.60
2018-07-19T02:14:46.490Z,22.57
2018-07-19T02:15:17.681Z,22.55
2018-07-19T02:15:48.961Z,22.52
2018-07-19T02:16:20.127Z,22.53
2018-07-19T02:16:51.251Z,22.50
2018-07-19T02:17:22.519Z,22.48
2018-07-19T02:17:53.660Z,22.47
2018-07-19T02:18:24.896Z,22.45
2018-07-19T02:18:56.071Z,22.43
2018-07-19T02:19:28.300Z,22.42
2018-07-19T02:19:59.498Z,22.39
2018-07-19T02:20:30.705Z,22.41
2018-07-19T02:21:01.935Z,22.41
2018-07-19T02:21:33.100Z,22.41
2018-07-19T02:22:04.279Z,22.42
2018-07-19T02:22:35.468Z,22.44
2018-07-19T02:23:06.583Z,22.45
2018-07-19T02:23:37.778Z,22.44
2018-07-19T02:24:09.039Z,22.44
2018-07-19T02:24:40.196Z,22.45
2018-07-19T02:25:11.491Z,22.45
2018-07-19T02:25:42.619Z,22.46
2018-07-19T02:26:13.775Z,22.46
2018-07-19T02:26:45.672Z,22.50
2018-07-19T02:27:16.864Z,22.53
2018-07-19T02:27:48.031Z,22.55
2018-07-19T02:28:19.159Z,22.57
2018-07-19T02:28:50.328Z,22.58
2018-07-19T02:29:22.136Z,22.59
2018-07-19T02:29:53.299Z,22.60
2018-07-19T02:30:24.485Z,22.57
2018-07-19T02:30:55.733Z,22.57
2018-07-19T02:31:26.919Z,22.55
2018-07-19T02:31:58.054Z,22.50
2018-07-19T02:32:29.195Z,22.46
2018-07-19T02:33:00.309Z,22.44
2018-07-19T02:33:31.471Z,22.42
2018-07-19T02:34:02.666Z,22.39
2018-07-19T02:34:33.843Z,22.37
2018-07-19T02:35:05.081Z,22.35
2018-07-19T02:35:36.223Z,22.33
2018-07-19T02:36:08.713Z,22.33
2018-07-19T02:36:39.836Z,22.32
2018-07-19T02:37:11.089Z,22.30
2018-07-19T02:37:42.232Z,22.26
2018-07-19T02:38:13.416Z,22.27
2018-07-19T02:38:44.539Z,22.29
2018-07-19T02:39:15.716Z,22.30
2018-07-19T02:39:46.875Z,22.32
2018-07-19T02:40:18.023Z,22.33
2018-07-19T02:40:49.205Z,22.33
2018-07-19T02:41:20.400Z,22.36
2018-07-19T02:41:51.560Z,22.39
2018-07-19T02:42:22.739Z,22.39
2018-07-19T02:42:53.912Z,22.40
2018-07-19T02:43:25.095Z,22.42
2018-07-19T02:43:56.299Z,22.45
2018-07-19T02:44:27.423Z,22.46
2018-07-19T02:44:58.601Z,22.49
2018-07-19T02:45:29.869Z,22.52
2018-07-19T02:46:01.044Z,22.56
2018-07-19T02:46:32.170Z,22.59
2018-07-19T02:47:03.311Z,22.62
2018-07-19T02:47:34.440Z,22.63
2018-07-19T02:48:05.616Z,22.65
2018-07-19T02:48:36.883Z,22.65
2018-07-19T02:49:08.075Z,22.66
2018-07-19T02:49:39.208Z,22.69
2018-07-19T02:50:12.200Z,22.69
2018-07-19T02:50:43.438Z,22.70
2018-07-19T02:51:14.647Z,22.74
2018-07-19T02:51:45.755Z,22.74
2018-07-19T02:52:16.928Z,22.76
2018-07-19T02:52:48.128Z,22.78
2018-07-19T02:53:19.240Z,22.79
2018-07-19T02:53:50.466Z,22.79
2018-07-19T02:54:22.155Z,22.80
2018-07-19T02:54:53.326Z,22.79
2018-07-19T02:55:24.504Z,22.76
2018-07-19T02:55:55.720Z,22.75
2018-07-19T02:56:26.880Z,22.73
2018-07-19T02:56:58.053Z,22.72
2018-07-19T02:57:29.180Z,22.68
2018-07-19T02:58:00.291Z,22.70
2018-07-19T02:58:31.437Z,22.72
2018-07-19T02:59:02.668Z,22.71
2018-07-19T02:59:33.914Z,22.72
2018-07-19T03:00:05.106Z,22.71
2018-07-19T03:00:36.227Z,22.70
2018-07-19T03:01:07.358Z,22.70
2018-07-19T03:01:38.500Z,22.69
2018-07-19T03:02:09.728Z,22.72
2018-07-19T03:02:40.876Z,22.72
2018-07-19T03:03:12.020Z,22.71
2018-07-19T03:03:43.232Z,22.70
2018-07-19T03:04:14.383Z,22.74
2018-07-19T03:04:45.505Z,22.74
2018-07-19T03:05:16.690Z,22.74
2018-07-19T03:05:47.867Z,22.74
2018-07-19T03:06:18.983Z,22.73
2018-07-19T03:06:50.112Z,22.75
2018-07-19T03:07:21.280Z,22.76
2018-07-19T03:07:52.415Z,22.78
2018-07-19T03:08:23.547Z,22.79
2018-07-19T03:08:54.737Z,22.79
2018-07-19T03:09:25.911Z,22.82
2018-07-19T03:09:57.047Z,22.83
2018-07-19T03:10:28.302Z,22.90
2018-07-19T03:10:59.482Z,22.94
2018-07-19T03:11:30.616Z,22.96
2018-07-19T03:12:01.828Z,22.99
2018-07-19T03:12:32.955Z,22.99
2018-07-19T03:13:04.152Z,23.00
2018-07-19T03:13:35.408Z,23.02
2018-07-19T03:14:06.685Z,23.03
2018-07-19T03:14:37.843Z,23.05
2018-07-19T03:15:08.966Z,23.07
2018-07-19T03:15:40.106Z,23.07
2018-07-19T03:16:11.284Z,23.07
2018-07-19T03:16:42.541Z,23.08
2018-07-19T03:17:13.752Z,23.08
2018-07-19T03:17:44.952Z,23.10
2018-07-19T03:18:16.179Z,23.14
2018-07-19T03:18:47.307Z,23.17
2018-07-19T03:19:18.551Z,23.22
2018-07-19T03:19:49.782Z,23.23
2018-07-19T03:20:20.916Z,23.23
2018-07-19T03:20:52.074Z,23.23
2018-07-19T03:21:23.344Z,23.23
2018-07-19T03:21:54.580Z,23.21
2018-07-19T03:22:25.783Z,23.19
2018-07-19T03:22:56.964Z,23.18
2018-07-19T03:23:28.144Z,23.21
2018-07-19T03:23:59.267Z,23.24
2018-07-19T03:24:30.452Z,23.32
2018-07-19T03:25:01.690Z,23.40
2018-07-19T03:25:33.517Z,23.54
2018-07-19T03:26:04.684Z,23.67
2018-07-19T03:26:35.862Z,23.82
2018-07-19T03:27:07.060Z,24.01
2018-07-19T03:27:38.244Z,24.16
2018-07-19T03:28:09.455Z,24.30
2018-07-19T03:28:40.706Z,24.45
2018-07-19T03:29:11.884Z,24.61
2018-07-19T03:29:43.101Z,24.75
2018-07-19T03:30:14.263Z,24.86
2018-07-19T03:30:45.392Z,24.97
2018-07-19T03:31:16.621Z,25.09
2018-07-19T03:31:47.790Z,25.14
2018-07-19T03:32:18.987Z,25.24
2018-07-19T03:32:50.143Z,25.30
2018-07-19T03:33:21.280Z,25.35
2018-07-19T03:33:53.157Z,25.33
2018-07-19T03:34:24.336Z,25.34
2018-07-19T03:34:55.507Z,25.40
2018-07-19T03:35:26.707Z,25.47
2018-07-19T03:35:57.860Z,25.50
2018-07-19T03:36:29.036Z,25.43
2018-07-19T03:37:00.183Z,25.48
2018-07-19T03:37:31.319Z,25.52
2018-07-19T03:38:02.477Z,25.56
2018-07-19T03:38:33.717Z,25.65
2018-07-19T03:39:04.986Z,25.81
2018-07-19T03:39:36.169Z,25.85
2018-07-19T03:40:07.337Z,25.92
2018-07-19T03:40:38.437Z,25.99
2018-07-19T03:41:09.612Z,26.07
2018-07-19T03:41:40.846Z,26.22
2018-07-19T03:42:12.123Z,26.28
2018-07-19T03:42:43.312Z,26.37
2018-07-19T03:43:14.578Z,26.46
2018-07-19T03:43:45.717Z,26.60
2018-07-19T03:44:17.715Z,26.78
2018-07-19T03:44:48.855Z,26.82
2018-07-19T03:45:20.064Z,26.95
2018-07-19T03:45:51.237Z,27.06
2018-07-19T03:46:22.383Z,27.22
2018-07-19T03:46:53.620Z,27.29
2018-07-19T03:47:24.755Z,27.33
2018-07-19T03:47:57.106Z,27.32
2018-07-19T03:48:28.246Z,27.25
2018-07-19T03:48:59.378Z,27.24
2018-07-19T03:49:30.636Z,27.30
2018-07-19T03:50:01.784Z,27.28
2018-07-19T03:50:32.975Z,27.27
2018-07-19T03:51:04.251Z,27.26
2018-07-19T03:51:35.465Z,27.31
2018-07-19T03:52:06.700Z,27.36
2018-07-19T03:52:37.895Z,27.49
2018-07-19T03:53:09.173Z,27.64
2018-07-19T03:53:40.475Z,27.71
2018-07-19T03:54:11.674Z,27.76
2018-07-19T03:54:42.814Z,27.78
2018-07-19T03:55:14.032Z,27.72
2018-07-19T03:55:45.223Z,27.78
2018-07-19T03:56:16.469Z,27.82
2018-07-19T03:56:47.635Z,27.85
2018-07-19T03:57:18.923Z,27.88
2018-07-19T03:57:50.130Z,27.95
2018-07-19T03:58:21.262Z,27.99
2018-07-19T03:58:52.466Z,28.09
2018-07-19T03:59:23.618Z,28.19
2018-07-19T03:59:54.822Z,28.13
2018-07-19T04:00:26.090Z,28.12
2018-07-19T04:00:57.312Z,27.98
2018-07-19T04:01:28.472Z,27.91
2018-07-19T04:01:59.737Z,27.72
2018-07-19T04:02:30.815Z,27.53
2018-07-19T04:03:02.099Z,27.28
2018-07-19T04:03:33.252Z,27.11
2018-07-19T04:04:04.465Z,27.12
2018-07-19T04:04:35.589Z,27.09
2018-07-19T04:05:06.723Z,26.93
2018-07-19T04:05:38.011Z,26.71
2018-07-19T04:06:09.161Z,26.54
2018-07-19T04:06:40.378Z,26.27
2018-07-19T04:07:11.524Z,26.05
2018-07-19T04:07:42.652Z,26.01
2018-07-19T04:08:13.855Z,25.95
2018-07-19T04:08:45.040Z,25.81
2018-07-19T04:09:16.347Z,25.74
2018-07-19T04:09:47.556Z,25.65
2018-07-19T04:10:18.760Z,25.58
2018-07-19T04:10:50.032Z,25.42
2018-07-19T04:11:21.184Z,25.31
2018-07-19T04:11:52.350Z,25.29
2018-07-19T04:12:23.628Z,25.21
2018-07-19T04:12:54.774Z,25.10
2018-07-19T04:13:25.966Z,25.04
2018-07-19T04:13:57.153Z,24.99
2018-07-19T04:14:28.339Z,25.04
2018-07-19T04:14:59.581Z,24.99
2018-07-19T04:15:30.752Z,24.94
2018-07-19T04:16:01.937Z,24.86
2018-07-19T04:16:33.105Z,24.81
2018-07-19T04:17:04.328Z,24.74
2018-07-19T04:17:35.443Z,24.71
2018-07-19T04:18:06.639Z,24.72
2018-07-19T04:18:37.999Z,24.68
2018-07-19T04:19:09.221Z,24.73
2018-07-19T04:19:40.375Z,24.91
2018-07-19T04:20:11.567Z,25.09
2018-07-19T04:20:42.791Z,25.18
2018-07-19T04:21:13.946Z,25.19
2018-07-19T04:21:45.086Z,25.21
2018-07-19T04:22:16.336Z,25.22
2018-07-19T04:22:47.541Z,25.17
2018-07-19T04:23:18.672Z,25.21
2018-07-19T04:23:49.897Z,25.10
2018-07-19T04:24:21.010Z,25.15
2018-07-19T04:24:52.141Z,25.19
2018-07-19T04:25:23.370Z,25.29
2018-07-19T04:25:54.625Z,25.39
2018-07-19T04:26:25.792Z,25.44
2018-07-19T04:26:56.915Z,25.44
2018-07-19T04:27:28.097Z,25.30
2018-07-19T04:27:59.280Z,25.24
2018-07-19T04:28:30.404Z,25.23
2018-07-19T04:29:02.339Z,25.24
2018-07-19T04:29:33.581Z,25.12
2018-07-19T04:30:04.777Z,25.19
2018-07-19T04:30:35.980Z,25.19
2018-07-19T04:31:07.218Z,25.02
2018-07-19T04:31:38.354Z,24.99
2018-07-19T04:32:09.513Z,24.97
2018-07-19T04:32:40.636Z,24.91
2018-07-19T04:33:12.387Z,24.94
2018-07-19T04:33:43.573Z,24.95
2018-07-19T04:34:14.763Z,24.97
2018-07-19T04:34:45.917Z,24.95
2018-07-19T04:35:17.103Z,24.97
2018-07-19T04:35:48.288Z,24.96
2018-07-19T04:36:19.547Z,24.98
2018-07-19T04:36:50.689Z,25.04
2018-07-19T04:37:21.938Z,25.03
2018-07-19T04:37:53.143Z,25.04
2018-07-19T04:38:24.322Z,25.04
2018-07-19T04:38:55.569Z,25.04
2018-07-19T04:39:26.696Z,25.28
2018-07-19T04:39:57.859Z,25.49
2018-07-19T04:40:29.120Z,25.62
2018-07-19T04:41:00.311Z,25.70
2018-07-19T04:41:31.456Z,25.68
2018-07-19T04:42:02.711Z,25.66
2018-07-19T04:42:33.848Z,25.67
2018-07-19T04:43:05.026Z,25.68
2018-07-19T04:43:36.212Z,25.53
2018-07-19T04:44:07.418Z,25.51
2018-07-19T04:44:38.683Z,25.47
2018-07-19T04:45:09.870Z,25.45
2018-07-19T04:45:41.082Z,25.43
2018-07-19T04:46:12.233Z,25.45
2018-07-19T04:46:43.376Z,25.38
2018-07-19T04:47:14.520Z,25.27
2018-07-19T04:47:45.659Z,25.23
2018-07-19T04:48:16.834Z,25.25
2018-07-19T04:48:48.077Z,25.31
2018-07-19T04:49:19.361Z,25.33
2018-07-19T04:49:50.640Z,25.32
2018-07-19T04:50:21.835Z,25.43
2018-07-19T04:50:53.149Z,25.50
2018-07-19T04:51:24.348Z,25.60
2018-07-19T04:51:55.515Z,25.66
2018-07-19T04:52:26.712Z,25.81
2018-07-19T04:52:57.988Z,25.92
2018-07-19T04:53:29.266Z,26.06
2018-07-19T04:54:01.604Z,26.21
2018-07-19T04:54:32.826Z,26.36
2018-07-19T04:55:04.023Z,26.45
2018-07-19T04:55:35.187Z,26.59
2018-07-19T04:56:06.402Z,26.58
2018-07-19T04:56:37.728Z,26.81
2018-07-19T04:57:08.859Z,27.06
2018-07-19T04:57:40.053Z,27.17
2018-07-19T04:58:11.244Z,27.16
2018-07-19T04:58:42.467Z,26.88
2018-07-19T04:59:13.696Z,26.52
2018-07-19T04:59:44.893Z,26.42
2018-07-19T05:00:16.023Z,26.44
2018-07-19T05:00:47.216Z,26.65
2018-07-19T05:01:18.506Z,26.93
2018-07-19T05:01:49.736Z,26.99
2018-07-19T05:02:20.831Z,26.90
2018-07-19T05:02:52.125Z,26.76
2018-07-19T05:03:23.372Z,26.50
2018-07-19T05:03:54.557Z,26.19
2018-07-19T05:04:25.756Z,26.02
2018-07-19T05:04:56.900Z,25.91
2018-07-19T05:05:28.045Z,25.78
2018-07-19T05:05:59.972Z,25.63
2018-07-19T05:06:31.168Z,25.51
2018-07-19T05:07:02.312Z,25.54
2018-07-19T05:07:33.537Z,25.42
2018-07-19T05:08:04.770Z,25.44
2018-07-19T05:08:36.031Z,25.45
2018-07-19T05:09:07.281Z,25.35
2018-07-19T05:09:38.464Z,25.28
2018-07-19T05:10:09.665Z,25.27
2018-07-19T05:10:40.841Z,25.15
2018-07-19T05:11:11.987Z,25.01
2018-07-19T05:11:43.788Z,24.90
2018-07-19T05:12:14.927Z,24.80
2018-07-19T05:12:46.123Z,24.83
2018-07-19T05:13:17.330Z,24.82
2018-07-19T05:13:48.520Z,24.85
2018-07-19T05:14:19.701Z,24.87
2018-07-19T05:14:50.974Z,24.92
2018-07-19T05:15:22.119Z,24.98
2018-07-19T05:15:53.317Z,25.00
2018-07-19T05:16:24.543Z,25.02
2018-07-19T05:16:55.691Z,25.05
2018-07-19T05:17:26.912Z,25.07
2018-07-19T05:17:58.101Z,25.11
2018-07-19T05:18:29.243Z,25.17
2018-07-19T05:19:00.456Z,25.28
2018-07-19T05:19:31.585Z,25.48
2018-07-19T05:20:02.727Z,25.49
2018-07-19T05:20:34.062Z,25.65
2018-07-19T05:21:05.455Z,26.00
2018-07-19T05:21:36.734Z,26.49
2018-07-19T05:22:07.995Z,26.81
2018-07-19T05:22:39.168Z,26.80
2018-07-19T05:23:10.417Z,26.82
2018-07-19T05:23:41.648Z,26.68
2018-07-19T05:24:12.925Z,26.43
2018-07-19T05:24:44.087Z,26.33
2018-07-19T05:25:15.270Z,26.22
2018-07-19T05:25:46.436Z,26.07
2018-07-19T05:26:17.548Z,26.07
2018-07-19T05:26:49.317Z,25.95
2018-07-19T05:27:20.443Z,25.75
2018-07-19T05:27:51.592Z,25.73
2018-07-19T05:28:22.798Z,25.76
2018-07-19T05:28:53.997Z,25.69
2018-07-19T05:29:25.196Z,25.65
2018-07-19T05:29:56.407Z,25.57
2018-07-19T05:30:27.644Z,25.52
2018-07-19T05:30:58.845Z,25.45
2018-07-19T05:31:30.129Z,25.41
2018-07-19T05:32:01.280Z,25.42
2018-07-19T05:32:32.421Z,25.36
2018-07-19T05:33:03.804Z,25.42
2018-07-19T05:33:35.045Z,25.39
2018-07-19T05:34:06.333Z,25.40
2018-07-19T05:34:37.621Z,25.55
2018-07-19T05:35:08.829Z,25.53
2018-07-19T05:35:40.166Z,25.46
2018-07-19T05:36:11.291Z,25.53
2018-07-19T05:36:42.518Z,25.61
2018-07-19T05:37:13.712Z,25.55
2018-07-19T05:37:44.899Z,25.36
2018-07-19T05:38:16.113Z,25.27
2018-07-19T05:38:47.326Z,25.29
2018-07-19T05:39:18.589Z,25.10
2018-07-19T05:39:49.812Z,25.06
2018-07-19T05:40:21.011Z,25.03
2018-07-19T05:40:52.176Z,25.02
2018-07-19T05:41:23.308Z,24.98
2018-07-19T05:41:54.489Z,25.01
2018-07-19T05:42:25.784Z,24.95
2018-07-19T05:42:56.852Z,24.81
2018-07-19T05:43:27.988Z,24.80
2018-07-19T05:43:59.156Z,24.79
2018-07-19T05:44:30.371Z,24.82
2018-07-19T05:45:01.549Z,24.84
2018-07-19T05:45:32.752Z,24.81
2018-07-19T05:46:04.053Z,24.88
2018-07-19T05:46:35.279Z,24.85
2018-07-19T05:47:06.457Z,24.85
2018-07-19T05:47:37.596Z,24.93
2018-07-19T05:48:08.789Z,24.87
2018-07-19T05:48:39.918Z,24.91
2018-07-19T05:49:11.118Z,25.00
2018-07-19T05:49:42.312Z,24.96
2018-07-19T05:50:13.487Z,24.92
2018-07-19T05:50:44.652Z,24.91
2018-07-19T05:51:15.829Z,24.94
2018-07-19T05:51:47.008Z,24.99
2018-07-19T05:52:18.823Z,25.09
2018-07-19T05:52:50.000Z,25.20
2018-07-19T05:53:21.180Z,25.12
2018-07-19T05:53:52.416Z,25.22
2018-07-19T05:54:23.676Z,25.20
2018-07-19T05:54:54.959Z,25.17
2018-07-19T05:55:26.091Z,25.12
2018-07-19T05:55:57.219Z,25.19
2018-07-19T05:56:29.039Z,25.16
2018-07-19T05:57:00.332Z,25.19
2018-07-19T05:57:31.515Z,25.34
2018-07-19T05:58:02.756Z,25.51
2018-07-19T05:58:34.043Z,25.61
2018-07-19T05:59:05.287Z,25.76
2018-07-19T05:59:36.444Z,25.84
2018-07-19T06:00:08.629Z,25.95
2018-07-19T06:00:39.800Z,26.03
2018-07-19T06:01:11.067Z,26.06
2018-07-19T06:01:42.216Z,26.15
2018-07-19T06:02:13.434Z,26.25
2018-07-19T06:02:44.584Z,26.37
2018-07-19T06:03:15.768Z,26.53
2018-07-19T06:03:46.980Z,26.73
2018-07-19T06:04:18.160Z,26.72
2018-07-19T06:04:49.410Z,26.80
2018-07-19T06:05:20.558Z,26.88
2018-07-19T06:05:51.692Z,26.83
2018-07-19T06:06:22.908Z,26.86
2018-07-19T06:06:54.136Z,26.84
2018-07-19T06:07:25.267Z,26.93
2018-07-19T06:07:56.414Z,26.94
2018-07-19T06:08:27.665Z,26.95
2018-07-19T06:08:58.890Z,26.99
2018-07-19T06:09:30.119Z,27.17
2018-07-19T06:10:01.354Z,27.15
2018-07-19T06:10:32.548Z,27.15
2018-07-19T06:11:03.730Z,27.11
2018-07-19T06:11:34.944Z,27.04
2018-07-19T06:12:06.169Z,27.04
2018-07-19T06:12:37.344Z,26.95
2018-07-19T06:13:08.523Z,26.96
2018-07-19T06:13:39.797Z,26.90
2018-07-19T06:14:10.931Z,26.92
2018-07-19T06:14:42.104Z,26.82
2018-07-19T06:15:13.296Z,26.79
2018-07-19T06:15:44.487Z,26.69
2018-07-19T06:16:15.656Z,26.63
2018-07-19T06:16:46.851Z,26.58
2018-07-19T06:17:17.984Z,26.54
2018-07-19T06:17:49.256Z,26.40
2018-07-19T06:18:20.435Z,26.21
2018-07-19T06:18:51.656Z,26.15
2018-07-19T06:19:22.796Z,26.14
2018-07-19T06:19:53.998Z,26.00
2018-07-19T06:20:25.147Z,25.88
2018-07-19T06:20:56.295Z,25.87
2018-07-19T06:21:27.553Z,25.86
2018-07-19T06:21:58.768Z,25.69
2018-07-19T06:22:29.981Z,25.65
2018-07-19T06:23:01.158Z,25.60
2018-07-19T06:23:32.313Z,25.57
2018-07-19T06:24:03.632Z,25.53
2018-07-19T06:24:34.910Z,25.35
2018-07-19T06:25:06.201Z,25.35
2018-07-19T06:25:37.429Z,25.36
2018-07-19T06:26:08.653Z,25.38
2018-07-19T06:26:39.872Z,25.47
2018-07-19T06:27:11.083Z,25.44
2018-07-19T06:27:42.360Z,25.40
2018-07-19T06:28:13.593Z,25.42
2018-07-19T06:28:44.716Z,25.42
2018-07-19T06:29:15.944Z,25.38
2018-07-19T06:29:47.947Z,25.40
2018-07-19T06:30:19.230Z,25.35
2018-07-19T06:30:50.788Z,25.26
2018-07-19T06:31:21.969Z,25.18
2018-07-19T06:31:53.159Z,25.17
2018-07-19T06:32:24.458Z,25.02
2018-07-19T06:32:55.650Z,24.95
2018-07-19T06:33:26.797Z,24.93
2018-07-19T06:33:58.000Z,24.85
2018-07-19T06:34:29.185Z,24.79
2018-07-19T06:35:00.488Z,24.79
2018-07-19T06:35:31.776Z,24.79
2018-07-19T06:36:03.190Z,24.79
2018-07-19T06:36:34.398Z,24.79
2018-07-19T06:37:05.609Z,24.73
2018-07-19T06:37:36.810Z,24.73
2018-07-19T06:38:08.120Z,24.77
2018-07-19T06:38:39.268Z,24.70
2018-07-19T06:39:10.438Z,24.70
2018-07-19T06:39:41.647Z,24.63
2018-07-19T06:40:12.851Z,24.59
2018-07-19T06:40:44.020Z,24.54
2018-07-19T06:41:15.163Z,24.57
2018-07-19T06:41:46.368Z,24.52
2018-07-19T06:42:17.567Z,24.41